Terminal Aerodrome Forecast
Issued by NWS Grand Forks, ND

Home | Current Version | Previous Version | Graphics & Text | Print | Product List | Glossary On
Versions: 1 2 3 4 5 6 7 8 9 10 11 12 13 14 15 16 17
710
FTUS43 KFGF 291348 AAA
TAFFAR
TAF AMD
KFAR 291348Z 2914/3012 29004KT P6SM BKN006
      TEMPO 2914/2915 SCT006 BKN015
     FM291500 29008KT P6SM SCT025
      TEMPO 2915/2917 BKN025
     FM292000 30010KT P6SM SCT150=

USA.gov is the U.S. government's official web portal to all federal, state and local government web resources and services.